Silver Lake, WI

4:50 AM CST on December 18, 2014 (GMT -0600)
KWITWINL2 | Change Station
CLOSE
Current Station
Personal Weather Station
Location: Bassett, WI
Elevation: 849 ft
Nearby Weather Stations

Elev 849 ft 42.53 °N, 88.21 °W | Updated 28 seconds ago

Clear
Clear
16.8 °F
Feels Like 17 °F
N
2.0
Wind Variable Wind from WNW
Gusts 3.0 mph

Today
High -- | Low -- °F
--% Chance of Precip.
Yesterday
High -- | Low -- °F
Precip. -- in
7:17 AM 4:21 PM
Waning Crescent, 15% visible
Pressure 30.26 in
Visibility 10.0 miles
Clouds Clear
Windchill 17 °F
Dew Point 14 °F
Humidity 88%
Rainfall 0.00 in
Snow Depth Not available.
UV 0 out of 12
Pollen .10 out of 12
Air Quality Not available.
Flu Activity Not available.
METAR KBUU 181035Z AUTO 26003KT 10SM CLR M10/M11 A3026 RMK AO2 T10961111

More Conditions Fewer Conditions

Pressure 30.26 in
Visibility 10.0 miles
Clouds Clear
Windchill 17 °F
Dew Point 14 °F
Humidity 88%
Rainfall 0.00 in
Snow Depth Not available.
UV 0 out of 12
Pollen .10 out of 12
Air Quality Not available.
Flu Activity Not available.
METAR KBUU 181035Z AUTO 26003KT 10SM CLR M10/M11 A3026 RMK AO2 T10961111

More Conditions Fewer Conditions

10-Day Weather Forecast

Almanac

Astronomy

Dec. 18, 2014 Rise Set
Actual Time
Civil Twilight
Nautical Twilight
Astronomical Twilight
Moon
Length of Visible Light
Length of Day
Tomorrow will be .
, % of the Moon is Illuminated

Today's Extremes

State Highs State Lows

Community

WunderPhotos

Upload Photos

1,778,917 photos uploaded!

WunderBlogs® & News

Nearby

Air Quality

  Air Quality AQ Index Pollutant
Not available.

Snow Depth

Station Depth Elevation

Earthquake Activity

City Distance Mag. Time & Date
Minimum magnitude displayed is 2.5.

Coastal Water Temperatures

Place Temperature

Nearby Weather Stations